sensor_id;sensor_type;location;lat;lon;timestamp;pressure;altitude;pressure_sealevel;temperature;humidity
54389;BME280;40975;50.390;8.640;2023-04-15T00:00:24;98223.88;;;2.91;100.00
54389;BME280;40975;50.390;8.640;2023-04-15T00:02:50;98224.00;;;2.89;100.00
54389;BME280;40975;50.390;8.640;2023-04-15T00:05:15;98219.22;;;2.83;100.00
54389;BME280;40975;50.390;8.640;2023-04-15T00:07:40;98224.94;;;2.77;100.00
54389;BME280;40975;50.390;8.640;2023-04-15T00:10:06;98221.25;;;2.79;100.00
54389;BME280;40975;50.390;8.640;2023-04-15T00:12:32;98223.03;;;2.79;100.00
54389;BME280;40975;50.390;8.640;2023-04-15T00:14:57;98220.88;;;2.73;100.00
54389;BME280;40975;50.390;8.640;2023-04-15T00:17:23;98224.34;;;2.62;100.00
54389;BME280;40975;50.390;8.640;2023-04-15T00:19:48;98212.91;;;2.63;100.00
54389;BME280;40975;50.390;8.640;2023-04-15T00:22:14;98220.50;;;2.66;100.00
54389;BME280;40975;50.390;8.640;2023-04-15T00:24:39;98208.84;;;2.70;100.00
54389;BME280;40975;50.390;8.640;2023-04-15T00:27:04;98210.41;;;2.73;100.00
54389;BME280;40975;50.390;8.640;2023-04-15T00:29:30;98214.81;;;2.72;100.00
54389;BME280;40975;50.390;8.640;2023-04-15T00:31:56;98203.38;;;2.73;100.00
54389;BME280;40975;50.390;8.640;2023-04-15T00:34:22;98206.38;;;2.69;100.00
54389;BME280;40975;50.390;8.640;2023-04-15T00:36:48;98198.00;;;2.63;100.00
54389;BME280;40975;50.390;8.640;2023-04-15T00:39:14;98193.63;;;2.64;100.00
54389;BME280;40975;50.390;8.640;2023-04-15T00:41:42;98193.50;;;2.66;100.00
54389;BME280;40975;50.390;8.640;2023-04-15T00:44:08;98197.19;;;2.74;100.00
54389;BME280;40975;50.390;8.640;2023-04-15T00:46:37;98199.56;;;2.77;100.00
54389;BME280;40975;50.390;8.640;2023-04-15T00:49:04;98193.59;;;2.75;100.00
54389;BME280;40975;50.390;8.640;2023-04-15T00:51:32;98195.97;;;2.78;100.00
54389;BME280;40975;50.390;8.640;2023-04-15T00:54:04;98196.47;;;2.72;100.00
54389;BME280;40975;50.390;8.640;2023-04-15T00:56:30;98195.75;;;2.70;100.00
54389;BME280;40975;50.390;8.640;2023-04-15T00:58:57;98195.97;;;2.67;100.00
54389;BME280;40975;50.390;8.640;2023-04-15T01:01:23;98194.44;;;2.64;100.00
54389;BME280;40975;50.390;8.640;2023-04-15T01:03:49;98191.81;;;2.64;100.00
54389;BME280;40975;50.390;8.640;2023-04-15T01:06:15;98178.84;;;2.52;100.00
54389;BME280;40975;50.390;8.640;2023-04-15T01:08:41;98195.53;;;2.62;100.00
54389;BME280;40975;50.390;8.640;2023-04-15T01:11:08;98195.53;;;2.62;100.00
54389;BME280;40975;50.390;8.640;2023-04-15T01:13:33;98196.69;;;2.58;100.00
54389;BME280;40975;50.390;8.640;2023-04-15T01:16:01;98193.34;;;2.56;100.00
54389;BME280;40975;50.390;8.640;2023-04-15T01:18:27;98192.91;;;2.62;100.00
54389;BME280;40975;50.390;8.640;2023-04-15T01:20:53;98195.38;;;2.63;100.00
54389;BME280;40975;50.390;8.640;2023-04-15T01:23:22;98203.75;;;2.57;100.00
54389;BME280;40975;50.390;8.640;2023-04-15T01:25:48;98196.09;;;2.54;100.00
54389;BME280;40975;50.390;8.640;2023-04-15T01:28:15;98193.03;;;2.49;100.00
54389;BME280;40975;50.390;8.640;2023-04-15T01:30:40;98201.94;;;2.46;100.00
54389;BME280;40975;50.390;8.640;2023-04-15T01:33:06;98208.00;;;2.47;100.00
54389;BME280;40975;50.390;8.640;2023-04-15T01:35:31;98205.16;;;2.39;100.00
54389;BME280;40975;50.390;8.640;2023-04-15T01:38:03;98201.69;;;2.38;100.00
54389;BME280;40975;50.390;8.640;2023-04-15T01:40:30;98193.72;;;2.28;100.00
54389;BME280;40975;50.390;8.640;2023-04-15T01:42:57;98194.41;;;2.30;100.00
54389;BME280;40975;50.390;8.640;2023-04-15T01:45:22;98197.53;;;2.36;100.00
54389;BME280;40975;50.390;8.640;2023-04-15T01:47:47;98199.28;;;2.35;100.00
54389;BME280;40975;50.390;8.640;2023-04-15T01:50:13;98192.28;;;2.36;100.00
54389;BME280;40975;50.390;8.640;2023-04-15T01:52:39;98198.00;;;2.41;100.00
54389;BME280;40975;50.390;8.640;2023-04-15T01:55:05;98185.50;;;2.44;100.00
54389;BME280;40975;50.390;8.640;2023-04-15T01:57:32;98181.09;;;2.45;100.00
54389;BME280;40975;50.390;8.640;2023-04-15T01:59:57;98179.31;;;2.45;100.00
54389;BME280;40975;50.390;8.640;2023-04-15T02:02:22;98175.28;;;2.41;100.00
54389;BME280;40975;50.390;8.640;2023-04-15T02:04:48;98192.03;;;2.50;100.00
54389;BME280;40975;50.390;8.640;2023-04-15T02:07:14;98195.28;;;2.54;100.00
54389;BME280;40975;50.390;8.640;2023-04-15T02:09:40;98183.59;;;2.46;100.00
54389;BME280;40975;50.390;8.640;2023-04-15T02:12:06;98200.75;;;2.51;100.00
54389;BME280;40975;50.390;8.640;2023-04-15T02:14:32;98195.50;;;2.51;100.00
54389;BME280;40975;50.390;8.640;2023-04-15T02:16:57;98192.88;;;2.51;100.00
54389;BME280;40975;50.390;8.640;2023-04-15T02:19:26;98200.59;;;2.41;100.00
54389;BME280;40975;50.390;8.640;2023-04-15T02:21:51;98194.53;;;2.40;100.00
54389;BME280;40975;50.390;8.640;2023-04-15T02:24:17;98202.41;;;2.40;100.00
54389;BME280;40975;50.390;8.640;2023-04-15T02:26:42;98200.00;;;2.37;100.00
54389;BME280;40975;50.390;8.640;2023-04-15T02:29:07;98205.59;;;2.32;100.00
54389;BME280;40975;50.390;8.640;2023-04-15T02:31:33;98207.41;;;2.32;100.00
54389;BME280;40975;50.390;8.640;2023-04-15T02:34:01;98199.75;;;2.29;100.00
54389;BME280;40975;50.390;8.640;2023-04-15T02:36:28;98198.22;;;2.26;100.00
54389;BME280;40975;50.390;8.640;2023-04-15T02:38:54;98194.16;;;2.22;100.00
54389;BME280;40975;50.390;8.640;2023-04-15T02:41:21;98182.50;;;2.15;100.00
54389;BME280;40975;50.390;8.640;2023-04-15T02:43:51;98191.53;;;2.22;100.00
54389;BME280;40975;50.390;8.640;2023-04-15T02:46:16;98186.69;;;2.29;100.00
54389;BME280;40975;50.390;8.640;2023-04-15T02:48:42;98193.22;;;2.35;100.00
54389;BME280;40975;50.390;8.640;2023-04-15T02:51:18;98192.06;;;2.39;100.00
54389;BME280;40975;50.390;8.640;2023-04-15T02:53:45;98187.50;;;2.41;100.00
54389;BME280;40975;50.390;8.640;2023-04-15T02:56:11;98182.91;;;2.44;100.00
54389;BME280;40975;50.390;8.640;2023-04-15T02:58:37;98185.16;;;2.49;100.00
54389;BME280;40975;50.390;8.640;2023-04-15T03:01:03;98186.94;;;2.48;100.00
54389;BME280;40975;50.390;8.640;2023-04-15T03:03:28;98185.63;;;2.54;100.00
54389;BME280;40975;50.390;8.640;2023-04-15T03:05:54;98186.56;;;2.53;100.00
54389;BME280;40975;50.390;8.640;2023-04-15T03:08:19;98197.53;;;2.58;100.00
54389;BME280;40975;50.390;8.640;2023-04-15T03:10:48;98199.81;;;2.63;100.00
54389;BME280;40975;50.390;8.640;2023-04-15T03:13:13;98200.63;;;2.63;100.00
54389;BME280;40975;50.390;8.640;2023-04-15T03:15:39;98203.75;;;2.57;100.00
54389;BME280;40975;50.390;8.640;2023-04-15T03:18:04;98201.94;;;2.58;100.00
54389;BME280;40975;50.390;8.640;2023-04-15T03:20:30;98201.34;;;2.54;100.00
54389;BME280;40975;50.390;8.640;2023-04-15T03:22:55;98196.22;;;2.41;100.00
54389;BME280;40975;50.390;8.640;2023-04-15T03:25:22;98200.50;;;2.42;100.00
54389;BME280;40975;50.390;8.640;2023-04-15T03:27:47;98205.94;;;2.28;100.00
54389;BME280;40975;50.390;8.640;2023-04-15T03:30:13;98197.25;;;2.16;100.00
54389;BME280;40975;50.390;8.640;2023-04-15T03:32:39;98192.38;;;2.11;100.00
54389;BME280;40975;50.390;8.640;2023-04-15T03:35:06;98189.03;;;2.09;100.00
54389;BME280;40975;50.390;8.640;2023-04-15T03:37:31;98188.44;;;2.06;100.00
54389;BME280;40975;50.390;8.640;2023-04-15T03:39:56;98179.47;;;1.97;100.00
54389;BME280;40975;50.390;8.640;2023-04-15T03:42:22;98180.06;;;2.00;100.00
54389;BME280;40975;50.390;8.640;2023-04-15T03:44:47;98181.66;;;2.03;100.00
54389;BME280;40975;50.390;8.640;2023-04-15T03:47:12;98185.31;;;2.00;100.00
54389;BME280;40975;50.390;8.640;2023-04-15T03:49:38;98186.88;;;2.03;100.00
54389;BME280;40975;50.390;8.640;2023-04-15T03:52:03;98179.25;;;2.00;100.00
54389;BME280;40975;50.390;8.640;2023-04-15T03:54:29;98177.19;;;1.92;100.00
54389;BME280;40975;50.390;8.640;2023-04-15T03:56:54;98178.28;;;1.90;100.00
54389;BME280;40975;50.390;8.640;2023-04-15T03:59:20;98170.41;;;1.90;100.00
54389;BME280;40975;50.390;8.640;2023-04-15T04:01:45;98178.03;;;1.93;100.00
54389;BME280;40975;50.390;8.640;2023-04-15T04:04:10;98175.19;;;1.96;100.00
54389;BME280;40975;50.390;8.640;2023-04-15T04:06:36;98166.50;;;1.95;100.00
54389;BME280;40975;50.390;8.640;2023-04-15T04:09:01;98168.44;;;2.05;100.00
54389;BME280;40975;50.390;8.640;2023-04-15T04:11:26;98170.81;;;2.08;100.00
54389;BME280;40975;50.390;8.640;2023-04-15T04:13:52;98178.69;;;2.19;100.00
54389;BME280;40975;50.390;8.640;2023-04-15T04:16:18;98174.66;;;2.26;100.00
54389;BME280;40975;50.390;8.640;2023-04-15T04:18:43;98178.22;;;2.25;100.00
54389;BME280;40975;50.390;8.640;2023-04-15T04:21:08;98183.94;;;2.30;100.00
54389;BME280;40975;50.390;8.640;2023-04-15T04:23:34;98176.69;;;2.23;100.00
54389;BME280;40975;50.390;8.640;2023-04-15T04:25:59;98162.72;;;2.11;100.00
54389;BME280;40975;50.390;8.640;2023-04-15T04:28:25;98160.00;;;2.12;100.00
54389;BME280;40975;50.390;8.640;2023-04-15T04:30:50;98174.16;;;2.21;100.00
54389;BME280;40975;50.390;8.640;2023-04-15T04:33:15;98177.72;;;2.20;100.00
54389;BME280;40975;50.390;8.640;2023-04-15T04:35:41;98180.25;;;2.22;100.00
54389;BME280;40975;50.390;8.640;2023-04-15T04:38:06;98179.03;;;2.26;100.00
54389;BME280;40975;50.390;8.640;2023-04-15T04:40:31;98182.03;;;2.32;100.00
54389;BME280;40975;50.390;8.640;2023-04-15T04:42:57;98181.59;;;2.39;100.00
54389;BME280;40975;50.390;8.640;2023-04-15T04:45:22;98182.91;;;2.44;100.00
54389;BME280;40975;50.390;8.640;2023-04-15T04:47:47;98182.41;;;2.51;100.00
54389;BME280;40975;50.390;8.640;2023-04-15T04:50:13;98184.31;;;2.48;100.00
54389;BME280;40975;50.390;8.640;2023-04-15T04:52:38;98184.81;;;2.54;100.00
54389;BME280;40975;50.390;8.640;2023-04-15T04:55:04;98184.91;;;2.52;100.00
54389;BME280;40975;50.390;8.640;2023-04-15T04:57:29;98188.75;;;2.59;100.00
54389;BME280;40975;50.390;8.640;2023-04-15T04:59:55;98190.75;;;2.67;100.00
54389;BME280;40975;50.390;8.640;2023-04-15T05:02:20;98193.59;;;2.75;100.00
54389;BME280;40975;50.390;8.640;2023-04-15T05:04:46;98195.63;;;2.83;100.00
54389;BME280;40975;50.390;8.640;2023-04-15T05:07:11;98195.03;;;2.91;100.00
54389;BME280;40975;50.390;8.640;2023-04-15T05:09:37;98201.56;;;2.97;100.00
54389;BME280;40975;50.390;8.640;2023-04-15T05:12:05;98206.31;;;3.03;100.00
54389;BME280;40975;50.390;8.640;2023-04-15T05:14:31;98213.09;;;3.05;100.00
54389;BME280;40975;50.390;8.640;2023-04-15T05:16:57;98218.00;;;3.10;100.00
54389;BME280;40975;50.390;8.640;2023-04-15T05:19:22;98215.84;;;3.15;100.00
54389;BME280;40975;50.390;8.640;2023-04-15T05:21:47;98213.81;;;3.19;100.00
54389;BME280;40975;50.390;8.640;2023-04-15T05:24:13;98214.50;;;3.32;100.00
54389;BME280;40975;50.390;8.640;2023-04-15T05:26:38;98219.38;;;3.37;100.00
54389;BME280;40975;50.390;8.640;2023-04-15T05:29:03;98214.50;;;3.32;100.00
54389;BME280;40975;50.390;8.640;2023-04-15T05:31:29;98223.75;;;3.48;100.00
54389;BME280;40975;50.390;8.640;2023-04-15T05:33:54;98217.56;;;3.49;100.00
54389;BME280;40975;50.390;8.640;2023-04-15T05:36:20;98219.69;;;3.55;100.00
54389;BME280;40975;50.390;8.640;2023-04-15T05:38:45;98223.88;;;3.57;100.00
54389;BME280;40975;50.390;8.640;2023-04-15T05:41:10;98225.75;;;3.67;100.00
54389;BME280;40975;50.390;8.640;2023-04-15T05:43:36;98235.81;;;3.83;100.00
54389;BME280;40975;50.390;8.640;2023-04-15T05:46:01;98237.50;;;3.84;100.00
54389;BME280;40975;50.390;8.640;2023-04-15T05:48:26;98241.75;;;3.85;100.00
54389;BME280;40975;50.390;8.640;2023-04-15T05:50:52;98234.13;;;3.93;100.00
54389;BME280;40975;50.390;8.640;2023-04-15T05:53:17;98235.31;;;4.10;100.00
54389;BME280;40975;50.390;8.640;2023-04-15T05:55:43;98241.25;;;4.24;100.00
54389;BME280;40975;50.390;8.640;2023-04-15T05:58:08;98241.19;;;4.35;100.00
54389;BME280;40975;50.390;8.640;2023-04-15T06:00:33;98242.22;;;4.44;100.00
54389;BME280;40975;50.390;8.640;2023-04-15T06:02:59;98241.44;;;4.53;100.00
54389;BME280;40975;50.390;8.640;2023-04-15T06:05:25;98245.75;;;4.64;100.00
54389;BME280;40975;50.390;8.640;2023-04-15T06:07:50;98250.25;;;4.73;100.00
54389;BME280;40975;50.390;8.640;2023-04-15T06:10:15;98248.50;;;4.83;100.00
54389;BME280;40975;50.390;8.640;2023-04-15T06:12:41;98247.69;;;4.93;100.00
54389;BME280;40975;50.390;8.640;2023-04-15T06:15:06;98251.59;;;4.98;100.00
54389;BME280;40975;50.390;8.640;2023-04-15T06:17:34;98253.19;;;5.11;100.00
54389;BME280;40975;50.390;8.640;2023-04-15T06:19:59;98266.09;;;5.24;100.00
54389;BME280;40975;50.390;8.640;2023-04-15T06:22:25;98261.94;;;5.31;100.00
54389;BME280;40975;50.390;8.640;2023-04-15T06:24:50;98270.28;;;5.46;100.00
54389;BME280;40975;50.390;8.640;2023-04-15T06:27:16;98262.84;;;5.61;100.00
54389;BME280;40975;50.390;8.640;2023-04-15T06:29:41;98269.66;;;5.64;100.00
54389;BME280;40975;50.390;8.640;2023-04-15T06:32:06;98266.91;;;5.85;100.00
54389;BME280;40975;50.390;8.640;2023-04-15T06:34:32;98269.94;;;5.90;100.00
54389;BME280;40975;50.390;8.640;2023-04-15T06:36:57;98265.41;;;6.12;100.00
54389;BME280;40975;50.390;8.640;2023-04-15T06:39:23;98269.84;;;6.21;100.00
54389;BME280;40975;50.390;8.640;2023-04-15T06:41:48;98265.81;;;6.36;100.00
54389;BME280;40975;50.390;8.640;2023-04-15T06:44:13;98271.88;;;6.57;100.00
54389;BME280;40975;50.390;8.640;2023-04-15T06:46:39;98268.91;;;6.79;100.00
54389;BME280;40975;50.390;8.640;2023-04-15T06:49:04;98276.06;;;7.07;100.00
54389;BME280;40975;50.390;8.640;2023-04-15T06:51:29;98269.56;;;7.29;100.00
54389;BME280;40975;50.390;8.640;2023-04-15T06:53:55;98265.31;;;7.46;100.00
54389;BME280;40975;50.390;8.640;2023-04-15T06:56:21;98267.69;;;7.67;100.00
54389;BME280;40975;50.390;8.640;2023-04-15T06:58:47;98275.34;;;7.88;100.00
54389;BME280;40975;50.390;8.640;2023-04-15T07:01:12;98277.84;;;8.08;100.00
54389;BME280;40975;50.390;8.640;2023-04-15T07:03:38;98280.16;;;8.29;100.00
54389;BME280;40975;50.390;8.640;2023-04-15T07:06:03;98281.25;;;8.45;100.00
54389;BME280;40975;50.390;8.640;2023-04-15T07:08:31;98277.78;;;8.44;100.00
54389;BME280;40975;50.390;8.640;2023-04-15T07:10:58;98274.09;;;8.55;100.00
54389;BME280;40975;50.390;8.640;2023-04-15T07:13:23;98281.91;;;8.83;100.00
54389;BME280;40975;50.390;8.640;2023-04-15T07:15:49;98284.38;;;9.11;100.00
54389;BME280;40975;50.390;8.640;2023-04-15T07:18:14;98275.50;;;9.28;100.00
54389;BME280;40975;50.390;8.640;2023-04-15T07:20:40;98284.84;;;9.41;100.00
54389;BME280;40975;50.390;8.640;2023-04-15T07:23:05;98283.03;;;9.49;99.40
54389;BME280;40975;50.390;8.640;2023-04-15T07:25:31;98284.88;;;9.49;98.97
54389;BME280;40975;50.390;8.640;2023-04-15T07:27:56;98278.09;;;9.55;98.51
54389;BME280;40975;50.390;8.640;2023-04-15T07:30:22;98282.91;;;9.59;97.09
54389;BME280;40975;50.390;8.640;2023-04-15T07:32:47;98281.59;;;9.63;96.61
54389;BME280;40975;50.390;8.640;2023-04-15T07:35:13;98279.53;;;9.41;95.38
54389;BME280;40975;50.390;8.640;2023-04-15T07:37:38;98265.72;;;9.29;94.41
54389;BME280;40975;50.390;8.640;2023-04-15T07:40:04;98285.66;;;9.41;94.56
54389;BME280;40975;50.390;8.640;2023-04-15T07:42:32;98276.41;;;9.45;92.53
54389;BME280;40975;50.390;8.640;2023-04-15T07:44:58;98277.41;;;9.44;92.88
54389;BME280;40975;50.390;8.640;2023-04-15T07:47:23;98278.66;;;9.32;90.26
54389;BME280;40975;50.390;8.640;2023-04-15T07:49:49;98277.09;;;9.47;90.54
54389;BME280;40975;50.390;8.640;2023-04-15T07:52:15;98276.59;;;9.52;91.34
54389;BME280;40975;50.390;8.640;2023-04-15T07:54:41;98283.25;;;9.64;90.14
54389;BME280;40975;50.390;8.640;2023-04-15T07:57:06;98278.47;;;9.68;89.16
54389;BME280;40975;50.390;8.640;2023-04-15T07:59:32;98276.69;;;9.93;87.83
54389;BME280;40975;50.390;8.640;2023-04-15T08:01:57;98280.50;;;9.99;87.42
54389;BME280;40975;50.390;8.640;2023-04-15T08:04:23;98280.84;;;10.13;86.62
54389;BME280;40975;50.390;8.640;2023-04-15T08:06:48;98280.56;;;10.40;87.25
54389;BME280;40975;50.390;8.640;2023-04-15T08:09:14;98284.88;;;10.41;86.34
54389;BME280;40975;50.390;8.640;2023-04-15T08:11:40;98284.50;;;10.20;86.42
54389;BME280;40975;50.390;8.640;2023-04-15T08:14:05;98278.38;;;10.27;83.78
54389;BME280;40975;50.390;8.640;2023-04-15T08:16:31;98280.41;;;10.42;85.38
54389;BME280;40975;50.390;8.640;2023-04-15T08:18:56;98279.09;;;10.38;85.44
54389;BME280;40975;50.390;8.640;2023-04-15T08:21:22;98278.72;;;10.66;85.01
54389;BME280;40975;50.390;8.640;2023-04-15T08:23:49;98294.25;;;11.10;83.90
54389;BME280;40975;50.390;8.640;2023-04-15T08:26:15;98274.97;;;11.88;79.32
54389;BME280;40975;50.390;8.640;2023-04-15T08:28:43;98282.09;;;12.95;73.74
54389;BME280;40975;50.390;8.640;2023-04-15T08:31:08;98286.22;;;13.73;68.66
54389;BME280;40975;50.390;8.640;2023-04-15T08:33:34;98288.06;;;14.52;68.62
54389;BME280;40975;50.390;8.640;2023-04-15T08:35:59;98285.84;;;14.34;64.70
54389;BME280;40975;50.390;8.640;2023-04-15T08:38:25;98296.31;;;14.57;61.93
54389;BME280;40975;50.390;8.640;2023-04-15T08:40:50;98294.16;;;13.88;62.79
54389;BME280;40975;50.390;8.640;2023-04-15T08:43:26;98289.06;;;14.08;61.64
54389;BME280;40975;50.390;8.640;2023-04-15T08:45:54;98288.63;;;14.69;62.70
54389;BME280;40975;50.390;8.640;2023-04-15T08:48:20;98302.41;;;14.51;61.60
54389;BME280;40975;50.390;8.640;2023-04-15T08:50:47;98300.88;;;13.62;64.49
54389;BME280;40975;50.390;8.640;2023-04-15T08:53:13;98292.50;;;13.05;65.62
54389;BME280;40975;50.390;8.640;2023-04-15T08:55:42;98291.34;;;12.31;69.05
54389;BME280;40975;50.390;8.640;2023-04-15T08:58:09;98287.91;;;11.99;70.69
54389;BME280;40975;50.390;8.640;2023-04-15T09:00:36;98296.25;;;11.88;71.97
54389;BME280;40975;50.390;8.640;2023-04-15T09:03:04;98292.91;;;11.86;71.68
54389;BME280;40975;50.390;8.640;2023-04-15T09:05:32;98296.72;;;11.91;71.97
54389;BME280;40975;50.390;8.640;2023-04-15T09:07:58;98294.78;;;11.85;74.34
54389;BME280;40975;50.390;8.640;2023-04-15T09:10:23;98291.41;;;11.60;73.46
54389;BME280;40975;50.390;8.640;2023-04-15T09:12:48;98301.47;;;11.41;73.64
54389;BME280;40975;50.390;8.640;2023-04-15T09:15:14;98299.50;;;11.27;72.67
54389;BME280;40975;50.390;8.640;2023-04-15T09:17:44;98291.09;;;11.15;76.59
54389;BME280;40975;50.390;8.640;2023-04-15T09:20:12;98301.59;;;10.92;74.73
54389;BME280;40975;50.390;8.640;2023-04-15T09:22:39;98302.09;;;10.79;78.72
54389;BME280;40975;50.390;8.640;2023-04-15T09:27:47;98305.09;;;10.34;81.88
54389;BME280;40975;50.390;8.640;2023-04-15T09:30:12;98308.06;;;10.23;81.80
54389;BME280;40975;50.390;8.640;2023-04-15T09:32:56;98317.16;;;10.20;82.50
54389;BME280;40975;50.390;8.640;2023-04-15T09:35:23;98320.50;;;10.31;84.16
54389;BME280;40975;50.390;8.640;2023-04-15T09:37:49;98326.91;;;10.11;87.11
54389;BME280;40975;50.390;8.640;2023-04-15T09:40:30;98327.69;;;9.87;89.62
54389;BME280;40975;50.390;8.640;2023-04-15T09:42:56;98322.50;;;9.69;91.44
54389;BME280;40975;50.390;8.640;2023-04-15T09:45:22;98331.06;;;9.55;89.02
54389;BME280;40975;50.390;8.640;2023-04-15T09:47:48;98329.22;;;9.47;90.18
54389;BME280;40975;50.390;8.640;2023-04-15T09:50:16;98330.13;;;9.29;92.69
54389;BME280;40975;50.390;8.640;2023-04-15T09:52:42;98334.16;;;9.42;91.70
54389;BME280;40975;50.390;8.640;2023-04-15T09:55:08;98335.47;;;9.38;91.63
54389;BME280;40975;50.390;8.640;2023-04-15T09:57:34;98338.47;;;9.43;92.50
54389;BME280;40975;50.390;8.640;2023-04-15T10:00:04;98348.06;;;9.44;91.44
54389;BME280;40975;50.390;8.640;2023-04-15T10:02:32;98351.91;;;9.49;91.39
54389;BME280;40975;50.390;8.640;2023-04-15T10:04:58;98344.31;;;9.55;90.94
54389;BME280;40975;50.390;8.640;2023-04-15T10:07:24;98347.66;;;9.57;89.08
54389;BME280;40975;50.390;8.640;2023-04-15T10:09:50;98347.19;;;9.70;90.47
54389;BME280;40975;50.390;8.640;2023-04-15T10:12:16;98355.66;;;9.73;92.17
54389;BME280;40975;50.390;8.640;2023-04-15T10:14:43;98352.19;;;9.73;90.55
54389;BME280;40975;50.390;8.640;2023-04-15T10:17:11;98353.50;;;9.77;90.79
54389;BME280;40975;50.390;8.640;2023-04-15T10:19:37;98353.41;;;9.95;91.13
54389;BME280;40975;50.390;8.640;2023-04-15T10:22:03;98362.56;;;10.17;91.13
54389;BME280;40975;50.390;8.640;2023-04-15T10:24:30;98361.91;;;10.23;89.22
54389;BME280;40975;50.390;8.640;2023-04-15T10:26:56;98364.41;;;10.33;87.68
54389;BME280;40975;50.390;8.640;2023-04-15T10:29:24;98365.63;;;10.47;86.40
54389;BME280;40975;50.390;8.640;2023-04-15T10:31:50;98361.47;;;10.61;87.22
54389;BME280;40975;50.390;8.640;2023-04-15T10:34:17;98370.25;;;10.53;88.17
54389;BME280;40975;50.390;8.640;2023-04-15T10:36:43;98372.88;;;10.37;92.16
54389;BME280;40975;50.390;8.640;2023-04-15T10:42:09;98387.13;;;10.27;97.12
54389;BME280;40975;50.390;8.640;2023-04-15T10:44:36;98381.81;;;10.19;97.43
54389;BME280;40975;50.390;8.640;2023-04-15T10:47:12;98387.69;;;9.96;99.34
54389;BME280;40975;50.390;8.640;2023-04-15T10:49:48;98388.69;;;10.04;100.00
54389;BME280;40975;50.390;8.640;2023-04-15T10:52:16;98395.66;;;10.05;100.00
54389;BME280;40975;50.390;8.640;2023-04-15T10:54:42;98400.28;;;9.94;100.00
54389;BME280;40975;50.390;8.640;2023-04-15T11:02:52;98403.53;;;9.45;100.00
54389;BME280;40975;50.390;8.640;2023-04-15T11:05:19;98407.69;;;9.48;100.00
54389;BME280;40975;50.390;8.640;2023-04-15T11:12:46;98410.41;;;9.64;100.00
54389;BME280;40975;50.390;8.640;2023-04-15T11:15:40;98410.25;;;9.58;100.00
54389;BME280;40975;50.390;8.640;2023-04-15T11:20:46;98410.78;;;9.70;100.00
54389;BME280;40975;50.390;8.640;2023-04-15T11:23:13;98415.44;;;9.76;100.00
54389;BME280;40975;50.390;8.640;2023-04-15T11:25:39;98420.59;;;9.77;100.00
54389;BME280;40975;50.390;8.640;2023-04-15T11:28:05;98429.06;;;9.81;100.00
54389;BME280;40975;50.390;8.640;2023-04-15T11:30:35;98433.47;;;9.72;100.00
54389;BME280;40975;50.390;8.640;2023-04-15T11:33:03;98433.94;;;9.68;100.00
54389;BME280;40975;50.390;8.640;2023-04-15T11:35:29;98438.38;;;9.59;100.00
54389;BME280;40975;50.390;8.640;2023-04-15T11:37:55;98438.78;;;9.46;100.00
54389;BME280;40975;50.390;8.640;2023-04-15T11:40:25;98442.38;;;9.37;100.00
54389;BME280;40975;50.390;8.640;2023-04-15T11:45:47;98452.66;;;9.40;100.00
54389;BME280;40975;50.390;8.640;2023-04-15T11:48:12;98451.16;;;9.37;100.00
54389;BME280;40975;50.390;8.640;2023-04-15T11:50:39;98446.22;;;9.42;100.00
54389;BME280;40975;50.390;8.640;2023-04-15T11:53:07;98459.72;;;9.31;100.00
54389;BME280;40975;50.390;8.640;2023-04-15T11:55:46;98458.00;;;9.22;100.00
54389;BME280;40975;50.390;8.640;2023-04-15T11:58:17;98451.97;;;9.11;100.00
54389;BME280;40975;50.390;8.640;2023-04-15T12:00:54;98453.41;;;9.06;100.00
54389;BME280;40975;50.390;8.640;2023-04-15T12:03:25;98451.16;;;8.93;100.00
54389;BME280;40975;50.390;8.640;2023-04-15T12:11:30;98464.84;;;8.88;100.00
54389;BME280;40975;50.390;8.640;2023-04-15T12:13:58;98476.63;;;8.94;100.00
54389;BME280;40975;50.390;8.640;2023-04-15T12:16:27;98467.47;;;8.88;100.00
54389;BME280;40975;50.390;8.640;2023-04-15T12:18:54;98471.41;;;8.84;100.00
54389;BME280;40975;50.390;8.640;2023-04-15T12:21:25;98468.09;;;8.82;100.00
54389;BME280;40975;50.390;8.640;2023-04-15T12:23:52;98475.50;;;8.78;100.00
54389;BME280;40975;50.390;8.640;2023-04-15T12:26:26;98478.81;;;8.80;100.00
54389;BME280;40975;50.390;8.640;2023-04-15T12:29:00;98479.59;;;8.73;100.00
54389;BME280;40975;50.390;8.640;2023-04-15T12:31:25;98486.31;;;8.67;100.00
54389;BME280;40975;50.390;8.640;2023-04-15T12:33:50;98479.47;;;8.64;100.00
54389;BME280;40975;50.390;8.640;2023-04-15T12:36:19;98474.44;;;8.53;100.00
54389;BME280;40975;50.390;8.640;2023-04-15T12:38:44;98491.50;;;8.59;100.00
54389;BME280;40975;50.390;8.640;2023-04-15T12:41:10;98487.97;;;8.68;100.00
54389;BME280;40975;50.390;8.640;2023-04-15T12:43:35;98492.50;;;8.58;100.00
54389;BME280;40975;50.390;8.640;2023-04-15T12:46:01;98492.88;;;8.63;100.00
54389;BME280;40975;50.390;8.640;2023-04-15T12:48:26;98486.00;;;8.70;100.00
54389;BME280;40975;50.390;8.640;2023-04-15T12:50:52;98488.28;;;8.65;100.00
54389;BME280;40975;50.390;8.640;2023-04-15T12:53:19;98489.94;;;8.66;100.00
54389;BME280;40975;50.390;8.640;2023-04-15T12:55:44;98492.78;;;8.54;100.00
54389;BME280;40975;50.390;8.640;2023-04-15T12:58:09;98486.00;;;8.70;100.00
54389;BME280;40975;50.390;8.640;2023-04-15T13:00:36;98484.31;;;8.69;100.00
54389;BME280;40975;50.390;8.640;2023-04-15T13:03:01;98492.09;;;8.52;100.00
54389;BME280;40975;50.390;8.640;2023-04-15T13:05:27;98494.63;;;8.44;100.00
54389;BME280;40975;50.390;8.640;2023-04-15T13:07:52;98497.56;;;8.51;100.00
54389;BME280;40975;50.390;8.640;2023-04-15T13:10:18;98496.13;;;8.47;100.00
54389;BME280;40975;50.390;8.640;2023-04-15T13:12:43;98492.44;;;8.39;100.00
54389;BME280;40975;50.390;8.640;2023-04-15T13:15:11;98494.00;;;8.32;100.00
54389;BME280;40975;50.390;8.640;2023-04-15T13:17:37;98501.28;;;8.20;100.00
54389;BME280;40975;50.390;8.640;2023-04-15T13:20:03;98504.44;;;8.34;100.00
54389;BME280;40975;50.390;8.640;2023-04-15T13:22:28;98509.19;;;8.30;100.00
54389;BME280;40975;50.390;8.640;2023-04-15T13:24:53;98510.69;;;8.33;100.00